createdAt,value
2023-03-31T00:00:16.340Z,28.42
2023-03-31T00:01:16.314Z,28.68
2023-03-31T00:02:16.333Z,25.15
2023-03-31T00:03:16.408Z,28.45
2023-03-31T00:04:16.484Z,28.72
2023-03-31T00:05:16.350Z,27.30
2023-03-31T00:06:16.347Z,30.49
2023-03-31T00:07:16.471Z,31.36
2023-03-31T00:08:16.337Z,27.91
2023-03-31T00:09:16.352Z,30.52
2023-03-31T00:10:18.354Z,28.27
2023-03-31T00:11:16.359Z,29.21
2023-03-31T00:12:16.374Z,29.65
2023-03-31T00:13:16.376Z,32.72
2023-03-31T00:14:16.394Z,30.73
2023-03-31T00:15:16.378Z,33.26
2023-03-31T00:16:16.433Z,32.67
2023-03-31T00:17:16.376Z,31.20
2023-03-31T00:18:16.382Z,30.34
2023-03-31T00:19:16.356Z,33.38
2023-03-31T00:20:16.383Z,33.19
2023-03-31T00:21:16.374Z,35.54
2023-03-31T00:22:16.400Z,35.48
2023-03-31T00:23:16.369Z,36.18
2023-03-31T00:24:16.414Z,36.77
2023-03-31T00:25:16.403Z,35.97
2023-03-31T00:26:16.413Z,36.32
2023-03-31T00:27:16.395Z,33.59
2023-03-31T00:28:16.405Z,34.23
2023-03-31T00:29:16.430Z,34.11
2023-03-31T00:30:16.455Z,35.21
2023-03-31T00:31:16.505Z,35.77
2023-03-31T00:32:16.456Z,33.20
2023-03-31T00:33:16.476Z,34.93
2023-03-31T00:34:16.518Z,33.24
2023-03-31T00:35:16.520Z,32.55
2023-03-31T00:36:16.565Z,33.71
2023-03-31T00:37:16.528Z,34.42
2023-03-31T00:38:16.512Z,34.06
2023-03-31T00:39:16.530Z,32.82
2023-03-31T00:40:16.579Z,33.01
2023-03-31T00:41:16.541Z,34.15
2023-03-31T00:42:16.553Z,34.47
2023-03-31T00:43:16.584Z,35.05
2023-03-31T00:44:16.549Z,32.56
2023-03-31T00:45:16.596Z,34.60
2023-03-31T00:46:16.559Z,37.60
2023-03-31T00:47:16.573Z,36.66
2023-03-31T00:48:16.561Z,35.95
2023-03-31T00:49:16.583Z,34.02
2023-03-31T00:50:16.601Z,36.27
2023-03-31T00:51:16.592Z,34.85
2023-03-31T00:52:16.614Z,33.56
2023-03-31T00:53:16.630Z,35.26
2023-03-31T00:54:16.647Z,36.35
2023-03-31T00:55:16.665Z,36.84
2023-03-31T00:56:16.663Z,35.70
2023-03-31T00:57:16.719Z,35.96
2023-03-31T00:58:16.660Z,35.74
2023-03-31T00:59:16.713Z,37.12
2023-03-31T01:00:16.710Z,37.68
2023-03-31T01:01:16.759Z,36.55
2023-03-31T01:02:16.726Z,36.79
2023-03-31T01:03:16.804Z,36.85
2023-03-31T01:04:16.743Z,35.02
2023-03-31T01:05:16.744Z,35.25
2023-03-31T01:06:16.746Z,35.92
2023-03-31T01:07:16.724Z,36.97
2023-03-31T01:08:16.736Z,39.03
2023-03-31T01:09:16.745Z,38.81
2023-03-31T01:10:16.741Z,38.09
2023-03-31T01:11:16.740Z,38.19
2023-03-31T01:12:16.761Z,38.01
2023-03-31T01:13:16.736Z,36.41
2023-03-31T01:14:16.738Z,35.77
2023-03-31T01:15:16.768Z,31.91
2023-03-31T01:16:16.764Z,30.09
2023-03-31T01:17:16.796Z,30.30
2023-03-31T01:18:16.805Z,31.00
2023-03-31T01:19:16.756Z,30.87
2023-03-31T01:20:16.747Z,27.64
2023-03-31T01:21:16.749Z,26.23
2023-03-31T01:22:16.758Z,25.95
2023-03-31T01:23:16.760Z,27.21
2023-03-31T01:24:16.753Z,26.62
2023-03-31T01:25:16.745Z,25.66
2023-03-31T01:26:16.769Z,27.41
2023-03-31T01:27:16.762Z,29.84
2023-03-31T01:28:16.757Z,32.53
2023-03-31T01:29:16.778Z,32.00
2023-03-31T01:30:16.772Z,31.97
2023-03-31T01:31:16.834Z,29.37
2023-03-31T01:32:16.775Z,29.10
2023-03-31T01:33:16.772Z,28.88
2023-03-31T01:34:16.802Z,25.00
2023-03-31T01:35:16.817Z,27.09
2023-03-31T01:36:16.846Z,25.26
2023-03-31T01:37:16.802Z,25.08
2023-03-31T01:38:16.830Z,29.12
2023-03-31T01:39:16.819Z,29.54
2023-03-31T01:40:16.816Z,29.54
2023-03-31T01:41:17.928Z,34.02
2023-03-31T01:42:16.820Z,35.71
2023-03-31T01:43:16.829Z,36.11
2023-03-31T01:44:16.808Z,36.94
2023-03-31T01:45:16.839Z,38.61
2023-03-31T01:46:16.849Z,38.25
2023-03-31T01:47:16.816Z,39.36
2023-03-31T01:48:16.804Z,37.53
2023-03-31T01:49:16.804Z,39.58
2023-03-31T01:50:16.864Z,40.23
2023-03-31T01:51:16.842Z,38.28
2023-03-31T01:52:16.853Z,41.45
2023-03-31T01:53:16.848Z,38.72
2023-03-31T01:54:16.831Z,36.87
2023-03-31T01:55:16.810Z,38.01
2023-03-31T01:56:16.809Z,36.55
2023-03-31T01:57:16.888Z,34.98
2023-03-31T01:58:16.815Z,35.65
2023-03-31T01:59:16.830Z,33.69
2023-03-31T02:00:16.842Z,34.60
2023-03-31T02:01:17.114Z,35.94
2023-03-31T02:02:16.875Z,32.80
2023-03-31T02:03:16.974Z,32.09
2023-03-31T02:04:16.832Z,30.96
2023-03-31T02:05:16.819Z,27.25
2023-03-31T02:06:16.824Z,26.98
2023-03-31T02:07:16.850Z,27.85
2023-03-31T02:08:16.835Z,29.32
2023-03-31T02:09:16.840Z,30.84
2023-03-31T02:10:16.857Z,32.44
2023-03-31T02:11:16.865Z,35.43
2023-03-31T02:12:16.838Z,29.59
2023-03-31T02:13:16.834Z,28.66
2023-03-31T02:14:16.829Z,27.17
2023-03-31T02:15:16.849Z,26.01
2023-03-31T02:16:16.893Z,25.00
2023-03-31T02:17:16.840Z,25.00
2023-03-31T02:18:16.846Z,29.50
2023-03-31T02:19:16.833Z,28.11
2023-03-31T02:20:16.833Z,30.66
2023-03-31T02:21:16.829Z,33.36
2023-03-31T02:22:16.819Z,33.11
2023-03-31T02:23:16.834Z,34.38
2023-03-31T02:24:16.849Z,33.53
2023-03-31T02:25:16.833Z,35.05
2023-03-31T02:26:16.850Z,33.67
2023-03-31T02:27:16.845Z,32.85
2023-03-31T02:28:16.828Z,33.40
2023-03-31T02:29:16.832Z,35.19
2023-03-31T02:30:16.837Z,34.66
2023-03-31T02:31:16.868Z,31.25
2023-03-31T02:32:16.853Z,34.42
2023-03-31T02:33:16.836Z,31.99
2023-03-31T02:34:16.862Z,34.91
2023-03-31T02:35:16.863Z,34.04
2023-03-31T02:36:16.899Z,33.51
2023-03-31T02:37:16.851Z,34.06
2023-03-31T02:38:16.856Z,34.76
2023-03-31T02:39:16.864Z,33.89
2023-03-31T02:40:16.875Z,33.50
2023-03-31T02:41:16.896Z,29.84
2023-03-31T02:42:16.905Z,33.11
2023-03-31T02:43:16.887Z,30.37
2023-03-31T02:44:16.894Z,32.71
2023-03-31T02:45:16.908Z,31.65
2023-03-31T02:46:16.932Z,32.93
2023-03-31T02:47:16.897Z,35.58
2023-03-31T02:48:16.932Z,34.05
2023-03-31T02:49:16.908Z,34.47
2023-03-31T02:50:16.894Z,36.73
2023-03-31T02:51:16.901Z,34.97
2023-03-31T02:52:16.907Z,35.16
2023-03-31T02:53:16.910Z,36.51
2023-03-31T02:54:16.887Z,32.82
2023-03-31T02:55:16.906Z,35.11
2023-03-31T02:56:16.901Z,35.98
2023-03-31T02:57:16.921Z,39.41
2023-03-31T02:58:16.912Z,39.02
2023-03-31T02:59:16.909Z,37.32
2023-03-31T03:00:16.916Z,39.01
2023-03-31T03:01:16.962Z,35.97
2023-03-31T03:02:16.915Z,34.73
2023-03-31T03:03:16.979Z,35.72
2023-03-31T03:04:16.918Z,35.04
2023-03-31T03:05:16.909Z,34.72
2023-03-31T03:06:16.966Z,32.59
2023-03-31T03:07:16.913Z,36.35
2023-03-31T03:08:16.924Z,36.24
2023-03-31T03:09:16.931Z,37.39
2023-03-31T03:10:16.934Z,38.98
2023-03-31T03:11:16.920Z,37.39
2023-03-31T03:12:16.957Z,39.86
2023-03-31T03:13:16.957Z,39.51
2023-03-31T03:14:16.937Z,41.43
2023-03-31T03:15:16.942Z,40.51
2023-03-31T03:16:16.958Z,40.93
2023-03-31T03:17:16.938Z,41.51
2023-03-31T03:18:16.931Z,40.28
2023-03-31T03:19:16.944Z,41.56
2023-03-31T03:20:16.938Z,39.36
2023-03-31T03:21:17.001Z,41.01
2023-03-31T03:22:16.947Z,41.16
2023-03-31T03:23:16.960Z,40.09
2023-03-31T03:24:16.989Z,40.52
2023-03-31T03:25:16.945Z,42.90
2023-03-31T03:26:16.968Z,42.46
2023-03-31T03:27:16.968Z,42.91
2023-03-31T03:28:16.951Z,39.65
2023-03-31T03:29:16.972Z,39.39
2023-03-31T03:30:16.959Z,36.84
2023-03-31T03:31:17.054Z,34.51
2023-03-31T03:32:16.983Z,33.31
2023-03-31T03:33:17.123Z,34.96
2023-03-31T03:34:16.960Z,30.07
2023-03-31T03:35:16.987Z,27.34
2023-03-31T03:36:17.041Z,29.07
2023-03-31T03:37:16.962Z,31.47
2023-03-31T03:38:16.974Z,30.56
2023-03-31T03:39:16.962Z,33.84
2023-03-31T03:40:16.980Z,36.74
2023-03-31T03:41:17.001Z,39.50
2023-03-31T03:42:16.977Z,40.06
2023-03-31T03:43:17.032Z,38.60
2023-03-31T03:44:16.985Z,38.77
2023-03-31T03:45:17.607Z,41.76
2023-03-31T03:46:17.013Z,43.15
2023-03-31T03:47:16.999Z,43.48
2023-03-31T03:48:17.000Z,43.78
2023-03-31T03:49:17.007Z,44.03
2023-03-31T03:50:17.006Z,42.99
2023-03-31T03:51:17.044Z,41.51
2023-03-31T03:52:17.010Z,44.02
2023-03-31T03:53:17.025Z,44.51
2023-03-31T03:54:17.021Z,41.57
2023-03-31T03:55:17.018Z,41.41
2023-03-31T03:56:17.013Z,43.70
2023-03-31T03:57:17.065Z,43.77
2023-03-31T03:58:17.073Z,45.06
2023-03-31T03:59:17.022Z,44.45
2023-03-31T04:00:17.018Z,41.91
2023-03-31T04:01:17.036Z,42.13
2023-03-31T04:02:17.046Z,44.76
2023-03-31T04:03:17.152Z,45.17
2023-03-31T04:04:17.016Z,43.25
2023-03-31T04:05:17.084Z,42.13
2023-03-31T04:06:17.061Z,40.27
2023-03-31T04:07:17.036Z,42.07
2023-03-31T04:08:17.040Z,39.87
2023-03-31T04:09:17.028Z,37.98
2023-03-31T04:10:17.052Z,37.49
2023-03-31T04:11:18.671Z,35.92
2023-03-31T04:12:17.046Z,37.02
2023-03-31T04:13:17.058Z,36.73
2023-03-31T04:14:17.060Z,37.27
2023-03-31T04:15:17.085Z,39.23
2023-03-31T04:16:17.158Z,40.79
2023-03-31T04:17:17.083Z,41.94
2023-03-31T04:18:17.067Z,39.67
2023-03-31T04:19:17.350Z,40.20
2023-03-31T04:20:17.070Z,42.56
2023-03-31T04:21:17.062Z,40.57
2023-03-31T04:22:17.053Z,41.78
2023-03-31T04:23:17.052Z,44.81
2023-03-31T04:24:17.068Z,42.34
2023-03-31T04:25:17.086Z,43.05
2023-03-31T04:26:17.066Z,43.44
2023-03-31T04:27:17.084Z,43.55
2023-03-31T04:28:17.079Z,43.76
2023-03-31T04:29:17.062Z,45.85
2023-03-31T04:30:17.089Z,46.16
2023-03-31T04:31:17.096Z,46.19
2023-03-31T04:32:17.092Z,45.76
2023-03-31T04:33:17.095Z,45.31
2023-03-31T04:34:17.089Z,44.97
2023-03-31T04:35:17.105Z,44.99
2023-03-31T04:36:17.105Z,45.56
2023-03-31T04:37:17.101Z,44.72
2023-03-31T04:38:17.105Z,44.45
2023-03-31T04:39:17.140Z,46.23
2023-03-31T04:40:17.122Z,45.73
2023-03-31T04:41:17.142Z,44.44
2023-03-31T04:42:17.129Z,46.05
2023-03-31T04:43:17.123Z,46.13
2023-03-31T04:44:17.157Z,47.27
2023-03-31T04:45:17.133Z,45.21
2023-03-31T04:46:17.183Z,48.51
2023-03-31T04:47:17.138Z,45.23
2023-03-31T04:48:17.125Z,46.22
2023-03-31T04:49:17.121Z,46.26
2023-03-31T04:50:17.334Z,47.27
2023-03-31T04:51:17.126Z,46.95
2023-03-31T04:52:17.128Z,47.12
2023-03-31T04:53:17.142Z,47.38
2023-03-31T04:54:17.159Z,46.92
2023-03-31T04:55:17.161Z,46.81
2023-03-31T04:56:17.148Z,47.91
2023-03-31T04:57:17.272Z,47.07
2023-03-31T04:58:17.136Z,47.00
2023-03-31T04:59:17.151Z,46.66
2023-03-31T05:00:17.138Z,48.11
2023-03-31T05:01:17.172Z,47.89
2023-03-31T05:02:17.195Z,48.07
2023-03-31T05:03:17.258Z,48.63
2023-03-31T05:04:17.182Z,48.88
2023-03-31T05:05:17.171Z,49.47
2023-03-31T05:06:17.154Z,51.20
2023-03-31T05:07:17.199Z,50.90
2023-03-31T05:08:17.156Z,49.67
2023-03-31T05:09:17.159Z,50.31
2023-03-31T05:10:17.165Z,49.17
2023-03-31T05:11:17.169Z,49.96
2023-03-31T05:12:17.191Z,49.90
2023-03-31T05:13:17.183Z,51.51
2023-03-31T05:14:17.169Z,52.18
2023-03-31T05:15:17.191Z,51.77
2023-03-31T05:16:17.282Z,50.03
2023-03-31T05:17:17.201Z,52.47
2023-03-31T05:18:17.201Z,51.78
2023-03-31T05:19:17.199Z,54.22
2023-03-31T05:20:17.215Z,51.50
2023-03-31T05:21:17.233Z,51.86
2023-03-31T05:22:17.265Z,49.42
2023-03-31T05:23:17.248Z,51.05
2023-03-31T05:24:17.229Z,52.32
2023-03-31T05:25:17.234Z,52.95
2023-03-31T05:26:17.239Z,52.62
2023-03-31T05:27:17.212Z,53.81
2023-03-31T05:28:17.266Z,55.37
2023-03-31T05:29:17.230Z,56.38
2023-03-31T05:30:17.248Z,58.13
2023-03-31T05:31:17.275Z,60.10
2023-03-31T05:32:17.261Z,61.37
2023-03-31T05:33:17.248Z,64.88
2023-03-31T05:34:17.254Z,63.43
2023-03-31T05:35:17.359Z,68.19
2023-03-31T05:36:17.348Z,71.32
2023-03-31T05:37:17.364Z,79.81
2023-03-31T05:38:17.398Z,91.75
2023-03-31T05:39:17.441Z,95.44
2023-03-31T05:40:17.580Z,95.30
2023-03-31T05:41:17.572Z,96.33
2023-03-31T05:42:17.641Z,98.53
2023-03-31T05:43:18.146Z,101.00
2023-03-31T05:44:17.781Z,102.61
2023-03-31T05:45:17.789Z,105.88
2023-03-31T05:46:17.903Z,108.89
2023-03-31T05:47:17.919Z,109.05
2023-03-31T05:48:18.169Z,115.75
2023-03-31T05:49:18.027Z,119.39
2023-03-31T05:50:18.062Z,122.52
2023-03-31T05:51:18.109Z,125.26
2023-03-31T05:52:18.155Z,126.87
2023-03-31T05:53:18.242Z,128.55
2023-03-31T05:54:18.235Z,129.71
2023-03-31T05:55:18.305Z,131.70
2023-03-31T05:56:18.311Z,133.66
2023-03-31T05:57:18.416Z,137.23
2023-03-31T05:58:18.674Z,135.44
2023-03-31T05:59:18.444Z,137.69
2023-03-31T06:00:18.492Z,138.77
2023-03-31T06:01:18.562Z,139.03
2023-03-31T06:02:18.617Z,140.55
2023-03-31T06:03:18.623Z,143.03
2023-03-31T06:04:18.688Z,143.32
2023-03-31T06:05:18.675Z,143.63
2023-03-31T06:06:18.727Z,144.50
2023-03-31T06:07:18.765Z,144.96
2023-03-31T06:08:18.831Z,145.09
2023-03-31T06:09:18.862Z,146.52
2023-03-31T06:10:18.899Z,148.75
2023-03-31T06:11:18.904Z,150.01
2023-03-31T06:12:18.975Z,149.43
2023-03-31T06:13:19.193Z,150.51
2023-03-31T06:14:19.033Z,151.63
2023-03-31T06:15:19.026Z,152.52
2023-03-31T06:16:19.149Z,153.41
2023-03-31T06:17:19.110Z,152.46
2023-03-31T06:18:19.205Z,154.76
2023-03-31T06:19:19.272Z,155.77
2023-03-31T06:20:27.796Z,156.49
2023-03-31T06:21:20.210Z,156.66
2023-03-31T06:22:19.182Z,156.86
2023-03-31T06:23:19.258Z,157.40
2023-03-31T06:24:19.165Z,156.95
2023-03-31T06:25:19.189Z,158.58
2023-03-31T06:26:19.175Z,158.90
2023-03-31T06:27:19.178Z,159.29
2023-03-31T06:28:19.686Z,159.89
2023-03-31T06:29:19.171Z,158.82
2023-03-31T06:30:19.169Z,161.19
2023-03-31T06:31:19.155Z,159.99
2023-03-31T06:32:19.104Z,160.00
2023-03-31T06:33:19.186Z,158.63
2023-03-31T06:34:21.375Z,160.09
2023-03-31T06:35:19.203Z,161.71
2023-03-31T06:36:19.547Z,163.54
2023-03-31T06:37:19.242Z,165.83
2023-03-31T06:38:19.715Z,163.22
2023-03-31T06:39:19.265Z,163.49
2023-03-31T06:40:19.343Z,166.98
2023-03-31T06:41:19.316Z,171.67
2023-03-31T06:42:19.334Z,176.29
2023-03-31T06:43:19.360Z,176.86
2023-03-31T06:44:19.366Z,179.89
2023-03-31T06:45:19.349Z,191.67
2023-03-31T06:46:19.466Z,189.05
2023-03-31T06:47:19.394Z,183.51
2023-03-31T06:48:19.388Z,179.94
2023-03-31T06:49:19.414Z,179.56
2023-03-31T06:50:19.729Z,171.52
2023-03-31T06:51:19.477Z,175.49
2023-03-31T06:52:19.452Z,173.55
2023-03-31T06:53:19.700Z,167.03
2023-03-31T06:54:19.482Z,171.88
2023-03-31T06:55:19.600Z,167.11
2023-03-31T06:56:19.573Z,172.08
2023-03-31T06:57:19.615Z,173.66
2023-03-31T06:58:19.577Z,170.37
2023-03-31T06:59:19.599Z,170.38
2023-03-31T07:00:22.373Z,169.86
2023-03-31T07:01:19.633Z,170.06
2023-03-31T07:02:19.631Z,169.46
2023-03-31T07:03:19.716Z,167.67
2023-03-31T07:04:19.814Z,169.49
2023-03-31T07:05:19.587Z,162.02
2023-03-31T07:06:19.561Z,165.78
2023-03-31T07:07:19.592Z,171.22
2023-03-31T07:08:19.557Z,173.49
2023-03-31T07:09:19.703Z,177.20
2023-03-31T07:10:19.520Z,246.10
2023-03-31T07:11:21.037Z,246.24
2023-03-31T07:12:19.516Z,243.53
2023-03-31T07:13:19.529Z,267.32
2023-03-31T07:14:19.523Z,238.82
2023-03-31T07:15:19.502Z,232.51
2023-03-31T07:16:19.532Z,238.61
2023-03-31T07:17:19.484Z,243.65
2023-03-31T07:18:19.479Z,250.00
2023-03-31T07:19:19.457Z,249.16
2023-03-31T07:20:19.462Z,249.65
2023-03-31T07:21:19.453Z,248.86
2023-03-31T07:22:19.456Z,255.64
2023-03-31T07:23:19.447Z,261.36
2023-03-31T07:24:19.458Z,284.60
2023-03-31T07:25:19.417Z,284.78
2023-03-31T07:26:19.423Z,275.46
2023-03-31T07:27:19.423Z,253.47
2023-03-31T07:28:19.399Z,247.18
2023-03-31T07:29:19.685Z,237.42
2023-03-31T07:30:19.393Z,228.96
2023-03-31T07:31:19.447Z,229.33
2023-03-31T07:32:19.417Z,225.07
2023-03-31T07:33:19.741Z,223.40
2023-03-31T07:34:19.356Z,221.49
2023-03-31T07:35:19.381Z,218.92
2023-03-31T07:36:19.556Z,215.77
2023-03-31T07:37:19.345Z,214.56
2023-03-31T07:38:20.212Z,237.02
2023-03-31T07:39:19.348Z,253.85
2023-03-31T07:40:19.697Z,252.97
2023-03-31T07:41:19.324Z,229.45
2023-03-31T07:42:19.312Z,207.39
2023-03-31T07:43:19.324Z,197.10
2023-03-31T07:44:19.347Z,191.47
2023-03-31T07:45:19.712Z,184.43
2023-03-31T07:46:19.467Z,180.48
2023-03-31T07:47:19.357Z,178.03
2023-03-31T07:48:19.363Z,175.73
2023-03-31T07:49:19.331Z,175.32
2023-03-31T07:50:19.358Z,171.56
2023-03-31T07:51:19.350Z,175.10
2023-03-31T07:52:19.339Z,187.54
2023-03-31T07:53:19.354Z,196.15
2023-03-31T07:54:19.364Z,191.92
2023-03-31T07:55:19.354Z,179.94
2023-03-31T07:56:19.383Z,176.79
2023-03-31T07:57:19.435Z,172.88
2023-03-31T07:58:19.359Z,169.39
2023-03-31T07:59:19.421Z,166.06
2023-03-31T08:00:19.401Z,163.78
2023-03-31T08:01:19.381Z,162.60
2023-03-31T08:02:19.503Z,162.88
2023-03-31T08:03:19.491Z,162.45
2023-03-31T08:04:19.536Z,162.57
2023-03-31T08:05:19.433Z,161.43
2023-03-31T08:06:19.407Z,159.42
2023-03-31T08:07:19.421Z,156.67
2023-03-31T08:08:19.471Z,154.44
2023-03-31T08:09:19.725Z,153.38
2023-03-31T08:10:19.562Z,153.16
2023-03-31T08:11:19.586Z,152.44
2023-03-31T08:12:19.614Z,151.86
2023-03-31T08:13:19.659Z,150.34
2023-03-31T08:14:30.487Z,148.20
2023-03-31T08:15:20.717Z,148.16
2023-03-31T08:16:19.769Z,144.73
2023-03-31T08:17:19.683Z,134.53
2023-03-31T08:18:19.669Z,137.39
2023-03-31T08:19:19.702Z,128.84
2023-03-31T08:20:19.695Z,130.59
2023-03-31T08:21:21.640Z,131.85
2023-03-31T08:22:19.661Z,131.80
2023-03-31T08:23:19.674Z,123.77
2023-03-31T08:24:19.638Z,124.08
2023-03-31T08:25:19.740Z,121.09
2023-03-31T08:26:19.731Z,125.82
2023-03-31T08:27:19.639Z,128.13
2023-03-31T08:28:19.617Z,130.49
2023-03-31T08:29:19.593Z,131.32
2023-03-31T08:30:19.602Z,130.38
2023-03-31T08:31:19.647Z,127.50
2023-03-31T08:32:19.578Z,126.95
2023-03-31T08:33:19.616Z,126.87
2023-03-31T08:34:19.628Z,124.54
2023-03-31T08:35:19.565Z,120.02
2023-03-31T08:36:19.613Z,94.24
2023-03-31T08:37:19.727Z,87.91
2023-03-31T08:38:20.239Z,83.54
2023-03-31T08:39:19.565Z,96.96
2023-03-31T08:40:19.581Z,100.45
2023-03-31T08:41:19.589Z,98.09
2023-03-31T08:42:19.537Z,99.30
2023-03-31T08:43:19.516Z,105.41
2023-03-31T08:44:19.509Z,110.08
2023-03-31T08:45:19.504Z,110.44
2023-03-31T08:46:19.557Z,111.64
2023-03-31T08:47:19.492Z,112.59
2023-03-31T08:48:19.479Z,112.19
2023-03-31T08:49:19.524Z,112.88
2023-03-31T08:50:19.475Z,111.99
2023-03-31T08:51:19.480Z,110.96
2023-03-31T08:52:19.740Z,110.80
2023-03-31T08:53:19.498Z,111.25
2023-03-31T08:54:19.484Z,113.38
2023-03-31T08:55:19.458Z,113.10
2023-03-31T08:56:19.457Z,113.36
2023-03-31T08:57:19.442Z,113.85
2023-03-31T08:58:19.410Z,113.14
2023-03-31T08:59:20.238Z,113.07
2023-03-31T09:00:20.235Z,113.08
2023-03-31T09:01:19.468Z,113.75
2023-03-31T09:02:19.520Z,114.94
2023-03-31T09:03:19.582Z,114.56
2023-03-31T09:04:19.454Z,114.73
2023-03-31T09:05:19.402Z,115.81
2023-03-31T09:06:20.246Z,117.05
2023-03-31T09:07:19.349Z,116.85
2023-03-31T09:08:19.376Z,116.97
2023-03-31T09:09:19.440Z,116.55
2023-03-31T09:10:19.741Z,116.13
2023-03-31T09:11:19.365Z,115.95
2023-03-31T09:12:19.746Z,115.41
2023-03-31T09:13:19.348Z,115.87
2023-03-31T09:14:19.316Z,117.03
2023-03-31T09:15:19.308Z,113.96
2023-03-31T09:16:19.327Z,114.93
2023-03-31T09:17:19.332Z,114.05
2023-03-31T09:18:19.282Z,113.79
2023-03-31T09:19:19.294Z,113.85
2023-03-31T09:20:19.373Z,112.99
2023-03-31T09:21:19.292Z,110.22
2023-03-31T09:22:19.259Z,110.91
2023-03-31T09:23:19.264Z,110.51
2023-03-31T09:24:19.294Z,110.09
2023-03-31T09:25:19.264Z,109.43
2023-03-31T09:26:19.227Z,96.59
2023-03-31T09:27:19.230Z,90.39
2023-03-31T09:28:19.244Z,88.41
2023-03-31T09:29:19.299Z,86.71
2023-03-31T09:30:19.751Z,85.74
2023-03-31T09:31:19.324Z,78.04
2023-03-31T09:32:19.249Z,81.48
2023-03-31T09:33:20.155Z,86.06
2023-03-31T09:34:19.275Z,71.87
2023-03-31T09:35:19.260Z,76.23
2023-03-31T09:36:19.336Z,79.91
2023-03-31T09:37:19.280Z,80.59
2023-03-31T09:38:19.314Z,81.02
2023-03-31T09:39:19.336Z,83.03
2023-03-31T09:40:19.793Z,84.77
2023-03-31T09:41:19.518Z,84.08
2023-03-31T09:42:19.504Z,82.85
2023-03-31T09:43:19.518Z,82.01
2023-03-31T09:44:19.629Z,79.49
2023-03-31T09:45:19.657Z,81.58
2023-03-31T09:46:19.957Z,83.03
2023-03-31T09:47:19.780Z,83.50
2023-03-31T09:48:19.838Z,84.47
2023-03-31T09:49:19.895Z,83.79
2023-03-31T09:50:20.004Z,84.05
2023-03-31T09:51:20.941Z,84.14
2023-03-31T09:52:19.934Z,84.37
2023-03-31T09:53:19.951Z,85.14
2023-03-31T09:54:20.256Z,85.84
2023-03-31T09:55:32.043Z,86.87
2023-03-31T09:56:20.902Z,84.26
2023-03-31T09:57:19.968Z,84.54
2023-03-31T09:58:19.891Z,84.39
2023-03-31T09:59:19.878Z,85.48
2023-03-31T10:00:19.996Z,87.00
2023-03-31T10:01:19.906Z,86.15
2023-03-31T10:02:19.870Z,87.49
2023-03-31T10:03:19.869Z,86.07
2023-03-31T10:04:20.307Z,86.50
2023-03-31T10:05:19.987Z,83.20
2023-03-31T10:06:20.100Z,84.14
2023-03-31T10:07:20.104Z,85.46
2023-03-31T10:08:20.251Z,84.75
2023-03-31T10:09:20.773Z,80.95
2023-03-31T10:10:20.795Z,84.65
2023-03-31T10:11:20.374Z,82.67
2023-03-31T10:12:20.428Z,84.16
2023-03-31T10:13:20.474Z,85.61
2023-03-31T10:14:20.558Z,86.41
2023-03-31T10:15:20.771Z,83.73
2023-03-31T10:16:20.674Z,82.97
2023-03-31T10:17:20.720Z,80.88
2023-03-31T10:18:20.890Z,83.52
2023-03-31T10:19:20.881Z,85.47
2023-03-31T10:20:21.276Z,79.95
2023-03-31T10:21:20.947Z,77.50
2023-03-31T10:22:21.000Z,81.70
2023-03-31T10:23:21.086Z,82.04
2023-03-31T10:24:21.144Z,81.91
2023-03-31T10:25:21.218Z,81.19
2023-03-31T10:26:21.300Z,83.71
2023-03-31T10:27:21.346Z,84.50
2023-03-31T10:28:21.378Z,83.30
2023-03-31T10:29:21.430Z,85.36
2023-03-31T10:30:21.811Z,86.23
2023-03-31T10:31:21.557Z,85.34
2023-03-31T10:32:21.583Z,79.68
2023-03-31T10:33:23.417Z,81.99
2023-03-31T10:34:21.693Z,82.22
2023-03-31T10:35:21.741Z,79.38
2023-03-31T10:36:21.767Z,79.81
2023-03-31T10:37:21.799Z,76.15
2023-03-31T10:38:21.838Z,72.64
2023-03-31T10:39:21.855Z,68.61
2023-03-31T10:40:22.291Z,65.76
2023-03-31T10:41:21.960Z,70.34
2023-03-31T10:42:21.883Z,70.50
2023-03-31T10:43:21.938Z,66.93
2023-03-31T10:44:21.887Z,64.48
2023-03-31T10:45:35.747Z,66.11
2023-03-31T10:46:22.918Z,62.02
2023-03-31T10:47:21.864Z,61.20
2023-03-31T10:48:21.865Z,59.88
2023-03-31T10:49:21.898Z,60.28
2023-03-31T10:50:22.299Z,55.83
2023-03-31T10:51:21.854Z,56.75
2023-03-31T10:52:21.829Z,53.59
2023-03-31T10:53:21.830Z,54.80
2023-03-31T10:54:21.854Z,58.69
2023-03-31T10:55:22.278Z,52.50
2023-03-31T10:56:22.297Z,53.14
2023-03-31T10:57:21.837Z,52.73
2023-03-31T10:58:21.814Z,50.17
2023-03-31T10:59:21.809Z,44.57
2023-03-31T11:00:21.797Z,47.11
2023-03-31T11:01:22.308Z,43.20
2023-03-31T11:02:21.846Z,45.28
2023-03-31T11:03:21.815Z,42.56
2023-03-31T11:04:21.793Z,44.54
2023-03-31T11:05:21.755Z,43.70
2023-03-31T11:06:21.828Z,43.12
2023-03-31T11:07:21.789Z,41.91
2023-03-31T11:08:21.834Z,43.02
2023-03-31T11:09:21.743Z,43.51
2023-03-31T11:10:21.752Z,40.44
2023-03-31T11:11:21.705Z,42.61
2023-03-31T11:12:21.718Z,41.39
2023-03-31T11:13:21.692Z,42.70
2023-03-31T11:14:21.709Z,45.31
2023-03-31T11:15:21.675Z,44.40
2023-03-31T11:16:21.789Z,44.64
2023-03-31T11:17:21.744Z,43.79
2023-03-31T11:18:21.668Z,37.82
2023-03-31T11:19:21.652Z,50.43
2023-03-31T11:20:21.704Z,50.48
2023-03-31T11:21:21.691Z,55.25
2023-03-31T11:22:21.630Z,56.32
2023-03-31T11:23:21.681Z,63.30
2023-03-31T11:24:21.618Z,61.17
2023-03-31T11:25:21.657Z,62.86
2023-03-31T11:26:21.600Z,59.33
2023-03-31T11:27:21.589Z,60.44
2023-03-31T11:28:21.622Z,55.33
2023-03-31T11:29:21.601Z,54.42
2023-03-31T11:30:21.612Z,53.27
2023-03-31T11:31:21.691Z,52.60
2023-03-31T11:32:21.603Z,49.66
2023-03-31T11:33:21.614Z,50.14
2023-03-31T11:34:21.604Z,49.48
2023-03-31T11:35:21.613Z,53.11
2023-03-31T11:36:21.698Z,50.74
2023-03-31T11:37:21.647Z,48.09
2023-03-31T11:38:23.866Z,48.83
2023-03-31T11:39:21.708Z,52.72
2023-03-31T11:40:21.757Z,56.49
2023-03-31T11:41:21.736Z,61.95
2023-03-31T11:42:21.753Z,62.73
2023-03-31T11:43:21.754Z,63.95
2023-03-31T11:44:21.734Z,61.42
2023-03-31T11:45:21.751Z,66.78
2023-03-31T11:46:21.851Z,65.73
2023-03-31T11:47:21.757Z,65.55
2023-03-31T11:48:21.757Z,67.43
2023-03-31T11:49:21.766Z,63.88
2023-03-31T11:50:21.807Z,65.74
2023-03-31T11:51:21.765Z,63.18
2023-03-31T11:52:21.764Z,66.39
2023-03-31T11:53:21.770Z,67.73
2023-03-31T11:54:21.780Z,66.28
2023-03-31T11:55:21.829Z,66.47
2023-03-31T11:56:21.769Z,67.98
2023-03-31T11:57:21.817Z,67.71
2023-03-31T11:58:21.769Z,65.62
2023-03-31T11:59:21.788Z,67.32
2023-03-31T12:00:21.785Z,65.63
2023-03-31T12:01:21.803Z,65.83
2023-03-31T12:02:21.865Z,66.96
2023-03-31T12:03:21.961Z,66.27
2023-03-31T12:04:21.787Z,65.95
2023-03-31T12:05:21.842Z,62.14
2023-03-31T12:06:21.839Z,61.06
2023-03-31T12:07:21.799Z,60.19
2023-03-31T12:08:21.834Z,59.07
2023-03-31T12:09:21.858Z,60.50
2023-03-31T12:10:21.792Z,60.00
2023-03-31T12:11:21.837Z,63.05
2023-03-31T12:12:21.800Z,60.42
2023-03-31T12:13:21.804Z,60.01
2023-03-31T12:14:21.801Z,58.98
2023-03-31T12:15:21.819Z,61.01
2023-03-31T12:16:21.829Z,63.95
2023-03-31T12:17:21.826Z,60.51
2023-03-31T12:18:21.819Z,57.53
2023-03-31T12:19:21.803Z,61.58
2023-03-31T12:20:21.821Z,59.37
2023-03-31T12:21:21.835Z,57.95
2023-03-31T12:22:21.869Z,59.29
2023-03-31T12:23:21.861Z,58.58
2023-03-31T12:24:21.853Z,58.45
2023-03-31T12:25:21.856Z,62.53
2023-03-31T12:26:21.857Z,58.41
2023-03-31T12:27:21.861Z,59.29
2023-03-31T12:28:21.848Z,59.39
2023-03-31T12:29:21.866Z,57.42
2023-03-31T12:30:21.875Z,59.08
2023-03-31T12:31:21.920Z,57.14
2023-03-31T12:32:21.979Z,56.21
2023-03-31T12:33:21.930Z,57.66
2023-03-31T12:34:21.924Z,56.75
2023-03-31T12:35:21.943Z,54.61
2023-03-31T12:36:21.999Z,53.08
2023-03-31T12:37:21.967Z,52.75
2023-03-31T12:38:21.979Z,51.54
2023-03-31T12:39:22.008Z,50.69
2023-03-31T12:40:22.010Z,49.38
2023-03-31T12:41:22.058Z,50.76
2023-03-31T12:42:24.673Z,48.25
2023-03-31T12:43:22.038Z,49.55
2023-03-31T12:44:22.019Z,50.90
2023-03-31T12:45:22.011Z,51.47